Time;durP1;ratioP1;P1;durP2;ratioP2;P2;SDS_P1;SDS_P2;PMS_P1;PMS_P2;Temp;Humidity;BMP_temperature;BMP_pressure;BME280_temperature;BME280_humidity;BME280_pressure;Samples;Min_cycle;Max_cycle;Signal;HPM_P1;HPM_P2
2021/07/06 00:00:52;;;;;;;8.44;3.75;;;;;;;23.19;95.78;151432.48;343114;154;859152;-65
2021/07/06 00:01:53;;;;;;;6.94;3.05;;;;;;;;;;343543;154;859515;-65
2021/07/06 00:02:55;;;;;;;5.14;3.51;;;;;;;;;;348668;154;857811;-65
2021/07/06 00:03:56;;;;;;;4.02;3.11;;;;;;;;;;345948;154;858704;-65
2021/07/06 00:05:01;;;;;;;4.06;3.01;;;;;;;;;;343627;154;863571;-65
2021/07/06 00:06:02;;;;;;;4.79;3.26;;;;;;;;;;344238;154;856293;-65
2021/07/06 00:07:04;;;;;;;9.46;3.50;;;;;;;;;;343044;154;856526;-65
2021/07/06 00:08:06;;;;;;;6.09;3.43;;;;;;;;;;342137;154;863653;-65
2021/07/06 00:09:07;;;;;;;5.89;3.54;;;;;;;;;;344714;154;863582;-66
2021/07/06 00:10:10;;;;;;;6.08;3.19;;;;;;;;;;344103;156;864211;-65
2021/07/06 00:11:11;;;;;;;4.07;3.50;;;;;;;;;;344660;154;863530;-65
2021/07/06 00:12:13;;;;;;;6.71;3.68;;;;;;;;;;344333;154;856258;-65
2021/07/06 00:13:15;;;;;;;5.91;3.21;;;;;;;;;;348246;154;863597;-65
2021/07/06 00:14:16;;;;;;;4.26;3.63;;;;;;;;;;344189;154;864071;-65
2021/07/06 00:15:22;;;;;;;5.67;3.73;;;;;;;;;;343711;154;856949;-65
2021/07/06 00:16:22;;;;;;;5.51;3.78;;;;;;;;;;343840;154;856983;-66
2021/07/06 00:19:07;;;;;;;5.09;3.07;;;;;;;23.29;59.46;99232.98;372337;142;881320;-62
2021/07/06 00:20:11;;;;;;;6.52;3.50;;;;;;;23.20;59.56;99235.31;364445;146;857192;-64
2021/07/06 00:21:13;;;;;;;5.01;3.36;;;;;;;23.21;59.59;99236.17;363068;147;859437;-64
2021/07/06 00:22:15;;;;;;;4.81;3.41;;;;;;;23.23;59.64;99238.69;365586;147;857240;-64
2021/07/06 00:23:17;;;;;;;5.98;3.35;;;;;;;23.23;59.55;99239.55;362208;145;864524;-64
2021/07/06 00:24:19;;;;;;;4.93;3.21;;;;;;;23.22;59.51;99251.06;358124;149;860091;-64
2021/07/06 00:25:21;;;;;;;7.97;3.55;;;;;;;23.21;59.56;99241.45;361827;147;859034;-65
2021/07/06 00:26:23;;;;;;;5.88;3.59;;;;;;;23.22;59.59;99239.64;361425;147;860135;-64
2021/07/06 00:27:25;;;;;;;5.90;3.53;;;;;;;23.23;59.63;99234.27;362297;146;857421;-64
2021/07/06 00:28:27;;;;;;;6.15;3.48;;;;;;;23.28;59.62;99241.87;363127;147;866572;-64
2021/07/06 00:29:29;;;;;;;5.62;4.01;;;;;;;23.31;59.47;99237.22;365074;147;857366;-65
2021/07/06 00:30:31;;;;;;;5.87;3.15;;;;;;;23.33;59.47;99240.59;363015;145;857286;-64
2021/07/06 00:31:33;;;;;;;6.16;3.36;;;;;;;23.37;59.50;99243.01;365692;147;857280;-64
2021/07/06 00:32:35;;;;;;;5.97;3.63;;;;;;;23.37;59.53;99233.30;365489;146;866390;-65
2021/07/06 00:33:37;;;;;;;5.26;3.73;;;;;;;23.40;59.30;99240.14;362523;146;865173;-65
2021/07/06 00:34:38;;;;;;;7.84;3.55;;;;;;;23.40;59.38;99241.00;364277;146;860039;-65
2021/07/06 00:35:42;;;;;;;4.95;3.31;;;;;;;23.39;59.32;99241.10;362923;146;859783;-65
2021/07/06 00:36:45;;;;;;;5.38;3.84;;;;;;;23.39;59.43;99239.31;362315;147;859269;-63
2021/07/06 00:37:47;;;;;;;4.67;3.32;;;;;;;23.42;59.37;99248.80;359808;147;864838;-64
2021/07/06 00:38:49;;;;;;;6.78;4.41;;;;;;;23.42;59.28;99239.09;359433;148;866412;-63
2021/07/06 00:39:50;;;;;;;5.49;3.77;;;;;;;23.42;59.37;99244.38;357564;148;859310;-64
2021/07/06 00:40:53;;;;;;;5.05;3.61;;;;;;;23.43;59.35;99251.34;359194;148;859980;-64
2021/07/06 00:41:55;;;;;;;4.65;3.57;;;;;;;23.45;59.23;99245.94;359549;147;859044;-64
2021/07/06 00:43:00;;;;;;;6.67;3.50;;;;;;;23.45;59.10;99244.16;359829;148;857613;-64
2021/07/06 00:44:02;;;;;;;3.97;3.37;;;;;;;23.45;59.16;99253.86;358430;148;857200;-64
2021/07/06 00:45:05;;;;;;;5.41;3.44;;;;;;;23.46;59.03;99248.48;359394;148;859353;-63
2021/07/06 00:46:07;;;;;;;5.13;3.74;;;;;;;23.44;59.00;99249.53;356957;148;859075;-64
2021/07/06 00:47:09;;;;;;;8.56;3.54;;;;;;;23.41;59.01;99247.97;358823;150;857270;-65
2021/07/06 00:48:11;;;;;;;6.58;3.34;;;;;;;23.40;59.24;99248.06;358555;149;864744;-63
2021/07/06 00:49:13;;;;;;;5.57;3.58;;;;;;;23.42;59.23;99243.52;361557;147;866533;-64
2021/07/06 00:50:18;;;;;;;4.95;3.63;;;;;;;23.44;59.22;99254.81;355270;149;857333;-63
2021/07/06 00:51:20;;;;;;;12.75;3.93;;;;;;;23.45;59.04;99257.36;356941;147;864846;-64
2021/07/06 00:52:22;;;;;;;5.63;3.90;;;;;;;23.45;58.87;99257.36;357871;148;857406;-64
2021/07/06 00:53:24;;;;;;;5.96;3.71;;;;;;;23.45;58.97;99249.44;362601;148;857476;-64
2021/07/06 00:54:25;;;;;;;6.33;3.93;;;;;;;23.46;59.09;99247.63;357870;148;864867;-64
2021/07/06 00:55:29;;;;;;;9.35;3.71;;;;;;;23.46;58.92;99250.27;358678;147;864881;-64
2021/07/06 00:56:32;;;;;;;6.48;3.43;;;;;;;23.45;58.89;99254.72;358715;147;866440;-64
2021/07/06 00:57:34;;;;;;;5.27;3.23;;;;;;;23.45;58.89;99254.72;357895;150;857227;-64
2021/07/06 00:58:36;;;;;;;4.89;3.49;;;;;;;;;;358966;149;857884;-64
2021/07/06 00:59:37;;;;;;;6.04;3.51;;;;;;;;;;359461;147;860425;-64
2021/07/06 01:00:39;;;;;;;6.06;3.55;;;;;;;;;;358478;149;857317;-64
2021/07/06 01:01:41;;;;;;;4.74;3.57;;;;;;;;;;360211;148;864882;-64
2021/07/06 01:02:42;;;;;;;7.69;3.85;;;;;;;;;;359647;147;864900;-64
2021/07/06 01:03:44;;;;;;;5.45;3.38;;;;;;;;;;362116;147;858276;-64
2021/07/06 01:04:46;;;;;;;4.31;3.48;;;;;;;;;;360728;148;859982;-63
2021/07/06 01:05:47;;;;;;;380.02;18.69;;;;;;;;;;356939;146;857278;-64
2021/07/06 01:06:49;;;;;;;5.63;3.55;;;;;;;;;;355215;149;857284;-65
2021/07/06 01:07:51;;;;;;;5.82;3.62;;;;;;;;;;354266;150;857344;-64
2021/07/06 01:08:53;;;;;;;5.88;3.81;;;;;;;;;;356020;150;857247;-63
2021/07/06 01:09:54;;;;;;;6.47;3.46;;;;;;;;;;354586;150;864790;-64
2021/07/06 01:10:57;;;;;;;8.25;3.89;;;;;;;;;;356257;150;857250;-64
2021/07/06 01:11:58;;;;;;;7.53;3.33;;;;;;;;;;355293;150;865770;-64
2021/07/06 01:13:00;;;;;;;7.99;3.61;;;;;;;;;;356027;150;857357;-64
2021/07/06 01:14:02;;;;;;;4.56;3.59;;;;;;;;;;356359;150;858156;-64
2021/07/06 01:15:06;;;;;;;5.29;3.99;;;;;;;;;;356871;150;864991;-64
2021/07/06 01:16:07;;;;;;;7.06;3.65;;;;;;;;;;351604;150;864779;-64
2021/07/06 01:17:09;;;;;;;7.65;4.00;;;;;;;;;;353662;150;857323;-64
2021/07/06 01:18:13;;;;;;;9.39;3.74;;;;;;;;;;346954;153;859373;-64
2021/07/06 01:19:14;;;;;;;4.99;3.51;;;;;;;;;;350592;152;858562;-63
2021/07/06 01:20:20;;;;;;;6.12;3.92;;;;;;;;;;348775;153;859612;-64
2021/07/06 01:21:21;;;;;;;8.43;3.81;;;;;;;;;;349809;153;857269;-64
2021/07/06 01:22:29;;;;;;;5.86;3.80;;;;;;;;;;350024;153;864970;-64
2021/07/06 01:23:31;;;;;;;5.08;3.39;;;;;;;;;;349900;153;859141;-65
2021/07/06 01:24:36;;;;;;;6.33;3.70;;;;;;;;;;351374;153;859032;-64
2021/07/06 01:25:39;;;;;;;5.82;3.44;;;;;;;;;;350231;153;857396;-64
2021/07/06 01:26:42;;;;;;;11.48;3.80;;;;;;;;;;345833;153;859307;-64
2021/07/06 01:27:44;;;;;;;7.14;3.69;;;;;;;;;;348549;153;859633;-64
2021/07/06 01:28:45;;;;;;;4.62;3.57;;;;;;;;;;351419;153;865259;-63
2021/07/06 01:29:47;;;;;;;4.11;3.35;;;;;;;;;;349401;153;857299;-63
2021/07/06 01:30:49;;;;;;;6.53;3.55;;;;;;;;;;349312;153;858996;-64
2021/07/06 01:31:50;;;;;;;5.15;3.68;;;;;;;;;;337036;156;864915;-64
2021/07/06 01:32:52;;;;;;;8.02;3.48;;;;;;;;;;342805;154;865631;-64
2021/07/06 01:33:56;;;;;;;6.36;3.34;;;;;;;;;;339101;158;857795;-64
2021/07/06 01:34:58;;;;;;;9.28;3.75;;;;;;;;;;341763;156;857790;-64
2021/07/06 01:36:03;;;;;;;4.24;3.37;;;;;;;;;;342751;155;864755;-65
2021/07/06 01:37:04;;;;;;;6.34;3.62;;;;;;;;;;344213;156;865010;-64
2021/07/06 01:38:06;;;;;;;7.29;3.41;;;;;;;;;;344429;156;860502;-64
2021/07/06 01:39:07;;;;;;;11.97;3.43;;;;;;;;;;344930;154;865591;-64
2021/07/06 01:40:10;;;;;;;6.22;3.86;;;;;;;;;;343350;155;866341;-64
2021/07/06 01:41:12;;;;;;;4.81;3.13;;;;;;;;;;343727;156;859129;-64
2021/07/06 01:42:21;;;;;;;5.93;3.69;;;;;;;;;;342943;156;858192;-64
2021/07/06 01:43:22;;;;;;;8.09;3.49;;;;;;;;;;343834;155;857381;-65
2021/07/06 01:44:25;;;;;;;7.15;3.60;;;;;;;;;;346825;155;857408;-64
2021/07/06 01:45:27;;;;;;;7.41;3.68;;;;;;;;;;345374;155;865515;-65
2021/07/06 01:46:30;;;;;;;5.05;3.59;;;;;;;;;;343641;155;857705;-65
2021/07/06 01:47:34;;;;;;;4.97;3.94;;;;;;;;;;338424;157;857771;-65
2021/07/06 01:48:36;;;;;;;4.52;4.11;;;;;;;;;;339748;157;866110;-65
2021/07/06 01:49:37;;;;;;;5.77;3.48;;;;;;;;;;337337;157;857474;-65
2021/07/06 01:50:41;;;;;;;5.79;3.37;;;;;;;;;;337590;157;865377;-64
2021/07/06 01:51:43;;;;;;;7.57;3.54;;;;;;;;;;336655;156;857218;-64
2021/07/06 01:52:45;;;;;;;5.59;3.57;;;;;;;;;;343019;156;857337;-64
2021/07/06 01:53:48;;;;;;;6.06;3.92;;;;;;;;;;340779;157;859097;-64
2021/07/06 01:54:51;;;;;;;9.34;3.64;;;;;;;;;;340406;157;857278;-64
2021/07/06 01:55:53;;;;;;;6.79;4.04;;;;;;;;;;341762;157;859026;-64
2021/07/06 01:56:55;;;;;;;9.95;3.37;;;;;;;;;;342144;156;857662;-64
2021/07/06 01:57:57;;;;;;;5.59;3.66;;;;;;;;;;339527;157;859260;-65
2021/07/06 01:58:59;;;;;;;8.75;3.59;;;;;;;;;;335902;160;857304;-64
2021/07/06 02:00:03;;;;;;;4.52;3.51;;;;;;;;;;339400;156;857254;-65
2021/07/06 02:01:04;;;;;;;9.55;3.86;;;;;;;;;;338027;156;857283;-65
2021/07/06 02:02:06;;;;;;;6.42;3.86;;;;;;;;;;335253;158;858712;-65
2021/07/06 02:03:08;;;;;;;4.56;3.84;;;;;;;;;;344639;156;857284;-62
2021/07/06 02:04:10;;;;;;;4.77;3.97;;;;;;;;;;349637;153;859038;-64
2021/07/06 02:05:17;;;;;;;7.70;3.73;;;;;;;;;;349202;153;857313;-64
2021/07/06 02:06:20;;;;;;;7.21;3.93;;;;;;;;;;350120;153;857420;-64
2021/07/06 02:07:22;;;;;;;11.79;4.13;;;;;;;;;;347869;152;858170;-64
2021/07/06 02:08:24;;;;;;;4.61;3.64;;;;;;;;;;348474;153;860109;-65
2021/07/06 02:09:25;;;;;;;4.22;3.52;;;;;;;;;;349314;153;866777;-64
2021/07/06 02:10:28;;;;;;;4.23;3.69;;;;;;;;;;350593;153;859208;-64
2021/07/06 02:11:29;;;;;;;8.15;4.11;;;;;;;;;;349747;153;858927;-64
2021/07/06 02:12:31;;;;;;;7.11;3.98;;;;;;;;;;348186;153;858710;-64
2021/07/06 02:13:33;;;;;;;5.85;3.71;;;;;;;;;;347854;153;865710;-64
2021/07/06 02:14:35;;;;;;;9.03;4.04;;;;;;;;;;350873;153;859476;-64
2021/07/06 02:15:37;;;;;;;10.45;3.73;;;;;;;;;;349120;153;865003;-64
2021/07/06 02:16:41;;;;;;;4.65;3.87;;;;;;;;;;345136;153;857798;-63
2021/07/06 02:17:43;;;;;;;9.53;4.04;;;;;;;;;;347319;153;858185;-63
2021/07/06 02:18:44;;;;;;;7.95;3.17;;;;;;;;;;349808;153;857442;-64
2021/07/06 02:19:46;;;;;;;4.16;3.60;;;;;;;;;;349115;153;857282;-64
2021/07/06 02:20:49;;;;;;;8.06;3.80;;;;;;;;;;351038;153;857828;-64
2021/07/06 02:21:51;;;;;;;8.62;4.09;;;;;;;;;;350632;153;858666;-64
2021/07/06 02:22:52;;;;;;;7.32;3.77;;;;;;;;;;349537;153;858321;-64
2021/07/06 02:23:54;;;;;;;5.93;3.47;;;;;;;;;;349724;153;857826;-64
2021/07/06 02:24:56;;;;;;;7.49;3.88;;;;;;;;;;348667;153;864842;-64
2021/07/06 02:25:58;;;;;;;6.68;3.86;;;;;;;;;;348183;153;866542;-64
2021/07/06 02:27:00;;;;;;;4.25;3.55;;;;;;;;;;349719;153;858460;-64
2021/07/06 02:28:01;;;;;;;6.54;3.71;;;;;;;;;;349535;153;858164;-64
2021/07/06 02:29:03;;;;;;;5.44;3.58;;;;;;;;;;349109;153;858449;-66
2021/07/06 02:30:07;;;;;;;4.48;3.43;;;;;;;;;;350524;153;864831;-65
2021/07/06 02:31:09;;;;;;;4.51;3.43;;;;;;;;;;348109;153;866576;-65
2021/07/06 02:32:10;;;;;;;5.79;3.82;;;;;;;;;;348539;153;866616;-65
2021/07/06 02:33:12;;;;;;;6.99;4.24;;;;;;;;;;347643;153;859059;-65
2021/07/06 02:34:13;;;;;;;6.37;3.76;;;;;;;;;;350428;153;857352;-66
2021/07/06 02:35:15;;;;;;;4.15;3.52;;;;;;;;;;351162;153;857756;-65
2021/07/06 02:36:17;;;;;;;6.20;3.90;;;;;;;;;;344226;154;857543;-65
2021/07/06 02:37:19;;;;;;;5.32;3.65;;;;;;;;;;336631;156;857368;-66
2021/07/06 02:38:20;;;;;;;6.69;3.91;;;;;;;;;;343827;156;857424;-65
2021/07/06 02:39:23;;;;;;;9.30;3.30;;;;;;;;;;344433;156;857573;-65
2021/07/06 02:40:27;;;;;;;8.38;4.16;;;;;;;;;;343094;156;859148;-64
2021/07/06 02:41:28;;;;;;;7.87;3.71;;;;;;;;;;336456;156;865330;-65
2021/07/06 02:42:30;;;;;;;8.53;3.94;;;;;;;;;;336055;156;859012;-64
2021/07/06 02:43:32;;;;;;;8.31;3.69;;;;;;;;;;338706;157;857440;-64
2021/07/06 02:44:33;;;;;;;7.26;3.53;;;;;;;;;;343987;155;859432;-64
2021/07/06 02:45:35;;;;;;;9.58;3.81;;;;;;;;;;339751;156;857428;-64
2021/07/06 02:46:38;;;;;;;6.27;3.75;;;;;;;;;;338715;157;857367;-63
2021/07/06 02:47:40;;;;;;;7.14;3.71;;;;;;;;;;337509;156;859398;-64
2021/07/06 02:48:42;;;;;;;6.24;4.41;;;;;;;;;;331929;159;866121;-64
2021/07/06 02:49:44;;;;;;;5.80;3.50;;;;;;;;;;340376;158;864896;-64
2021/07/06 02:50:45;;;;;;;5.58;3.52;;;;;;;;;;338439;156;867104;-65
2021/07/06 02:51:47;;;;;;;5.66;3.58;;;;;;;;;;337879;155;859385;-63
2021/07/06 02:52:49;;;;;;;5.06;3.50;;;;;;;;;;343699;156;865938;-64
2021/07/06 02:53:50;;;;;;;6.10;4.08;;;;;;;;;;345114;155;857237;-64
2021/07/06 02:54:52;;;;;;;9.61;3.79;;;;;;;;;;344237;155;857390;-63
2021/07/06 02:55:53;;;;;;;4.44;3.41;;;;;;;;;;340428;154;868345;-64
2021/07/06 02:56:55;;;;;;;7.36;3.33;;;;;;;;;;343920;156;858965;-65
2021/07/06 02:57:57;;;;;;;4.14;3.54;;;;;;;;;;344339;155;865976;-65
2021/07/06 02:58:59;;;;;;;5.84;3.77;;;;;;;;;;344361;154;857289;-64
2021/07/06 03:00:05;;;;;;;9.77;4.32;;;;;;;;;;345709;155;865640;-64
2021/07/06 03:01:08;;;;;;;4.43;3.48;;;;;;;;;;344544;155;857204;-64
2021/07/06 03:02:10;;;;;;;5.03;3.59;;;;;;;;;;341715;155;858676;-65
2021/07/06 03:03:11;;;;;;;4.79;3.53;;;;;;;;;;336953;159;857291;-64
2021/07/06 03:04:13;;;;;;;4.24;3.84;;;;;;;;;;334633;158;857723;-64
2021/07/06 03:05:15;;;;;;;4.31;3.26;;;;;;;;;;333961;157;857176;-64
2021/07/06 03:06:18;;;;;;;5.99;3.59;;;;;;;;;;336235;158;865843;-64
2021/07/06 03:07:20;;;;;;;4.76;3.64;;;;;;;;;;338162;157;857437;-64
2021/07/06 03:08:21;;;;;;;6.09;3.68;;;;;;;;;;336851;158;866245;-64
2021/07/06 03:09:23;;;;;;;7.44;3.53;;;;;;;;;;342899;154;857436;-64
2021/07/06 03:10:26;;;;;;;10.06;3.75;;;;;;;;;;342506;154;856505;-64
2021/07/06 03:11:27;;;;;;;6.51;3.56;;;;;;;;;;337629;157;857410;-65
2021/07/06 03:12:29;;;;;;;8.35;3.99;;;;;;;;;;337414;157;857311;-65
2021/07/06 03:13:31;;;;;;;6.24;3.64;;;;;;;;;;336722;157;864864;-65
2021/07/06 03:14:32;;;;;;;6.47;3.84;;;;;;;;;;340453;156;857438;-65
2021/07/06 03:15:34;;;;;;;9.37;3.68;;;;;;;;;;337393;157;864902;-65
2021/07/06 03:16:37;;;;;;;4.76;3.77;;;;;;;;;;336080;158;857346;-65
2021/07/06 03:17:40;;;;;;;6.75;4.11;;;;;;;;;;333174;158;857072;-65
2021/07/06 03:18:41;;;;;;;5.59;3.51;;;;;;;;;;345032;153;858035;-65
2021/07/06 03:19:43;;;;;;;4.30;3.71;;;;;;;;;;349647;153;858620;-65
2021/07/06 03:20:47;;;;;;;4.55;3.33;;;;;;;;;;348475;152;864148;-65
2021/07/06 03:21:49;;;;;;;6.97;3.58;;;;;;;;;;349759;153;858291;-66
2021/07/06 03:22:51;;;;;;;4.67;3.51;;;;;;;;;;346961;153;858964;-64
2021/07/06 03:23:52;;;;;;;8.04;3.84;;;;;;;;;;348647;153;857866;-63
2021/07/06 03:24:54;;;;;;;11.55;3.87;;;;;;;;;;348716;153;859052;-65
2021/07/06 03:25:55;;;;;;;4.91;3.74;;;;;;;;;;350987;153;857490;-64
2021/07/06 03:26:57;;;;;;;5.28;3.34;;;;;;;;;;349172;153;857700;-64
2021/07/06 03:28:00;;;;;;;6.29;3.75;;;;;;;;;;349562;153;866616;-64
2021/07/06 03:29:02;;;;;;;8.21;3.81;;;;;;;;;;347693;153;865519;-64
2021/07/06 03:30:06;;;;;;;4.18;3.73;;;;;;;;;;349722;153;858419;-64
2021/07/06 03:31:08;;;;;;;5.03;3.39;;;;;;;;;;349084;153;859766;-64
2021/07/06 03:32:10;;;;;;;4.51;3.49;;;;;;;;;;347592;153;866580;-65
2021/07/06 03:33:11;;;;;;;5.06;3.89;;;;;;;;;;351106;153;857249;-65
2021/07/06 03:34:13;;;;;;;5.09;3.41;;;;;;;;;;349042;153;857256;-63
2021/07/06 03:35:15;;;;;;;4.42;3.71;;;;;;;;;;349238;151;857524;-65
2021/07/06 03:36:17;;;;;;;8.37;3.81;;;;;;;;;;349475;153;866603;-64
2021/07/06 03:37:19;;;;;;;6.38;3.85;;;;;;;;;;349945;153;859023;-64
2021/07/06 03:38:20;;;;;;;6.44;3.85;;;;;;;;;;350145;153;857409;-63
2021/07/06 03:39:22;;;;;;;7.43;3.27;;;;;;;;;;348431;153;867244;-63
2021/07/06 03:40:24;;;;;;;6.00;4.06;;;;;;;;;;347655;153;865933;-63
2021/07/06 03:41:26;;;;;;;4.81;3.71;;;;;;;;;;349477;153;857571;-63
2021/07/06 03:42:28;;;;;;;5.49;4.11;;;;;;;;;;349458;153;857580;-63
2021/07/06 03:43:29;;;;;;;5.12;3.96;;;;;;;;;;349240;153;858890;-63
2021/07/06 03:44:32;;;;;;;8.57;3.56;;;;;;;;;;347772;152;857265;-64
2021/07/06 03:45:33;;;;;;;11.43;4.08;;;;;;;;;;350487;153;864862;-62
2021/07/06 03:46:37;;;;;;;5.40;3.73;;;;;;;;;;349646;153;857458;-63
2021/07/06 03:47:39;;;;;;;5.18;3.81;;;;;;;;;;349767;153;857916;-63
2021/07/06 03:48:41;;;;;;;9.31;4.05;;;;;;;;;;348786;153;864739;-64
2021/07/06 03:49:42;;;;;;;8.20;4.14;;;;;;;;;;349104;153;859265;-64
2021/07/06 03:50:44;;;;;;;5.87;3.77;;;;;;;;;;349198;153;864828;-64
2021/07/06 03:51:46;;;;;;;5.17;3.74;;;;;;;;;;347733;153;864866;-64
2021/07/06 03:52:48;;;;;;;5.13;3.36;;;;;;;;;;349993;153;857634;-63
2021/07/06 03:53:50;;;;;;;8.01;4.17;;;;;;;;;;348310;153;864610;-65
2021/07/06 03:54:51;;;;;;;4.60;3.66;;;;;;;;;;350330;153;858279;-64
2021/07/06 03:55:53;;;;;;;13.38;4.12;;;;;;;;;;348704;153;856376;-64
2021/07/06 03:56:55;;;;;;;5.98;3.50;;;;;;;;;;350658;153;865009;-64
2021/07/06 03:57:57;;;;;;;6.77;3.95;;;;;;;;;;350999;153;866386;-64
2021/07/06 03:58:58;;;;;;;4.23;3.80;;;;;;;;;;347896;153;858997;-65
2021/07/06 04:00:00;;;;;;;10.27;3.68;;;;;;;;;;349317;153;857788;-65
2021/07/06 04:01:02;;;;;;;7.22;3.97;;;;;;;;;;350125;153;857298;-65
2021/07/06 04:02:04;;;;;;;7.35;3.89;;;;;;;;;;348221;153;857184;-65
2021/07/06 04:03:05;;;;;;;6.20;4.16;;;;;;;;;;347336;153;857896;-65
2021/07/06 04:04:07;;;;;;;6.22;4.04;;;;;;;;;;349537;153;858694;-65
2021/07/06 04:05:09;;;;;;;6.10;3.84;;;;;;;;;;350920;153;866656;-65
2021/07/06 04:06:12;;;;;;;5.37;4.27;;;;;;;;;;349414;151;859240;-65
2021/07/06 04:07:13;;;;;;;5.40;4.08;;;;;;;;;;350010;153;857350;-65
2021/07/06 04:08:15;;;;;;;6.71;4.04;;;;;;;;;;346496;154;866575;-65
2021/07/06 04:09:16;;;;;;;7.24;3.91;;;;;;;;;;344840;154;859692;-65
2021/07/06 04:10:20;;;;;;;6.54;4.03;;;;;;;;;;344791;154;858808;-65
2021/07/06 04:11:22;;;;;;;5.61;4.26;;;;;;;;;;346536;154;857951;-65
2021/07/06 04:12:24;;;;;;;5.91;4.07;;;;;;;;;;346077;154;857469;-65
2021/07/06 04:13:25;;;;;;;8.51;4.05;;;;;;;;;;346252;154;856711;-65
2021/07/06 04:14:27;;;;;;;5.11;4.27;;;;;;;;;;346493;154;859273;-65
2021/07/06 04:15:29;;;;;;;24.27;4.24;;;;;;;;;;345157;154;858585;-65
2021/07/06 04:16:32;;;;;;;6.48;4.42;;;;;;;;;;347334;154;864942;-65
2021/07/06 04:17:34;;;;;;;7.52;4.16;;;;;;;;;;346340;153;857597;-65
2021/07/06 04:18:35;;;;;;;5.28;3.68;;;;;;;;;;344220;154;857418;-63
2021/07/06 04:19:37;;;;;;;7.12;3.79;;;;;;;;;;347050;154;857341;-64
2021/07/06 04:20:39;;;;;;;11.84;4.36;;;;;;;;;;346182;154;857506;-62
2021/07/06 04:21:40;;;;;;;10.53;7.34;;;;;;;;;;346481;154;865115;-62
2021/07/06 04:22:42;;;;;;;12.69;8.55;;;;;;;;;;345781;154;857371;-63
2021/07/06 04:23:44;;;;;;;8.41;4.77;;;;;;;;;;344198;154;857464;-64
2021/07/06 04:24:46;;;;;;;6.54;4.33;;;;;;;;;;345172;154;857465;-63
2021/07/06 04:25:47;;;;;;;5.60;3.89;;;;;;;;;;346900;153;857375;-63
2021/07/06 04:26:49;;;;;;;5.88;4.27;;;;;;;;;;345202;154;866435;-63
2021/07/06 04:27:54;;;;;;;5.54;3.95;;;;;;;;;;341797;154;857793;-64
2021/07/06 04:28:55;;;;;;;7.91;4.06;;;;;;;;;;344950;154;866496;-63
2021/07/06 04:29:57;;;;;;;8.08;4.25;;;;;;;;;;345325;153;857488;-64
2021/07/06 04:30:58;;;;;;;6.88;3.81;;;;;;;;;;347543;154;858624;-63
2021/07/06 04:32:00;;;;;;;7.61;4.19;;;;;;;;;;348039;154;866289;-63
2021/07/06 04:33:02;;;;;;;5.06;3.78;;;;;;;;;;346617;153;865409;-63
2021/07/06 04:34:04;;;;;;;7.91;3.78;;;;;;;;;;344242;154;864884;-63
2021/07/06 04:35:06;;;;;;;6.34;3.96;;;;;;;;;;343936;154;865499;-63
2021/07/06 04:36:08;;;;;;;12.81;4.16;;;;;;;;;;346847;154;865868;-63
2021/07/06 04:37:11;;;;;;;6.79;3.97;;;;;;;;;;345396;154;857065;-64
2021/07/06 04:38:12;;;;;;;5.54;4.35;;;;;;;;;;343885;154;866226;-64
2021/07/06 04:39:14;;;;;;;8.02;4.14;;;;;;;;;;345154;153;857690;-64
2021/07/06 04:40:16;;;;;;;7.29;3.99;;;;;;;;;;346775;154;864904;-64
2021/07/06 04:41:18;;;;;;;5.74;4.19;;;;;;;;;;345269;154;857419;-64
2021/07/06 04:42:19;;;;;;;6.99;4.27;;;;;;;;;;344037;154;857410;-65
2021/07/06 04:43:22;;;;;;;6.63;4.22;;;;;;;;;;347025;154;858155;-64
2021/07/06 04:44:24;;;;;;;5.23;4.16;;;;;;;;;;345975;154;859193;-63
2021/07/06 04:45:25;;;;;;;6.19;4.04;;;;;;;;;;342757;154;857660;-64
2021/07/06 04:46:28;;;;;;;8.85;4.37;;;;;;;;;;345016;154;857406;-64
2021/07/06 04:47:29;;;;;;;4.45;4.02;;;;;;;;;;346374;154;857352;-64
2021/07/06 04:48:31;;;;;;;5.36;4.26;;;;;;;;;;345196;154;858877;-65
2021/07/06 04:49:33;;;;;;;5.94;4.27;;;;;;;;;;345244;153;859515;-64
2021/07/06 04:50:38;;;;;;;5.62;4.08;;;;;;;;;;346090;154;865239;-64
2021/07/06 04:51:40;;;;;;;5.56;4.61;;;;;;;;;;347198;153;866473;-63
2021/07/06 04:52:46;;;;;;;7.05;4.49;;;;;;;;;;346702;154;860109;-65
2021/07/06 04:53:45;;;;;;;6.48;4.21;;;;;;;;;;337505;157;865407;-64
2021/07/06 04:54:47;;;;;;;7.96;4.57;;;;;;;;;;337655;156;858349;-64
2021/07/06 04:55:48;;;;;;;8.18;4.47;;;;;;;;;;339522;156;866688;-64
2021/07/06 04:56:51;;;;;;;7.18;4.30;;;;;;;;;;337491;156;859118;-64
2021/07/06 04:57:53;;;;;;;6.22;4.26;;;;;;;;;;333320;160;857307;-64
2021/07/06 04:58:55;;;;;;;5.38;3.93;;;;;;;;;;333762;159;857379;-64
2021/07/06 04:59:57;;;;;;;6.53;4.27;;;;;;;;;;335661;160;857354;-63
2021/07/06 05:01:00;;;;;;;7.21;4.83;;;;;;;;;;334081;157;859088;-64
2021/07/06 05:02:03;;;;;;;7.32;4.34;;;;;;;;;;335659;157;858213;-64
2021/07/06 05:03:04;;;;;;;7.65;4.37;;;;;;;;;;337887;156;857842;-64
2021/07/06 05:04:06;;;;;;;7.25;4.10;;;;;;;;;;339353;156;859059;-64
2021/07/06 05:05:09;;;;;;;12.06;4.44;;;;;;;;;;334192;157;866245;-63
2021/07/06 05:06:12;;;;;;;10.14;4.47;;;;;;;;;;338597;157;857440;-64
2021/07/06 05:07:13;;;;;;;6.63;4.54;;;;;;;;;;338689;156;857144;-63
2021/07/06 05:08:15;;;;;;;4.68;3.96;;;;;;;;;;341197;156;857925;-63
2021/07/06 05:09:17;;;;;;;6.71;4.06;;;;;;;;;;341449;156;864926;-63
2021/07/06 05:10:19;;;;;;;7.32;4.06;;;;;;;;;;336139;157;864819;-63
2021/07/06 05:11:20;;;;;;;6.25;4.49;;;;;;;;;;339121;155;865310;-63
2021/07/06 05:12:22;;;;;;;9.81;4.60;;;;;;;;;;337740;156;858939;-63
2021/07/06 05:13:24;;;;;;;6.51;4.66;;;;;;;;;;340846;156;857581;-63
2021/07/06 05:14:26;;;;;;;6.55;4.23;;;;;;;;;;336978;156;857398;-63
2021/07/06 05:15:28;;;;;;;9.56;4.35;;;;;;;;;;339993;156;857374;-63
2021/07/06 05:16:31;;;;;;;8.27;4.25;;;;;;;;;;334242;159;866215;-64
2021/07/06 05:17:32;;;;;;;10.99;4.76;;;;;;;;;;339730;156;859143;-65
2021/07/06 05:18:34;;;;;;;7.00;4.45;;;;;;;;;;340001;156;857527;-65
2021/07/06 05:19:36;;;;;;;5.64;4.64;;;;;;;;;;342917;156;857368;-65
2021/07/06 05:20:39;;;;;;;9.17;4.37;;;;;;;;;;334441;157;865217;-66
2021/07/06 05:21:41;;;;;;;7.16;4.71;;;;;;;;;;334576;156;858830;-65
2021/07/06 05:22:43;;;;;;;5.13;3.99;;;;;;;;;;336888;157;857383;-64
2021/07/06 05:23:44;;;;;;;6.73;4.57;;;;;;;;;;337482;159;864797;-63
2021/07/06 05:24:46;;;;;;;7.68;4.42;;;;;;;;;;336668;159;857347;-62
2021/07/06 05:25:48;;;;;;;5.99;4.07;;;;;;;;;;341659;157;859129;-63
2021/07/06 05:26:50;;;;;;;6.91;4.46;;;;;;;;;;338509;156;864751;-63
2021/07/06 05:27:52;;;;;;;6.65;4.15;;;;;;;;;;337818;157;857256;-63
2021/07/06 05:28:54;;;;;;;6.98;4.96;;;;;;;;;;340164;156;857361;-63
2021/07/06 05:29:55;;;;;;;8.00;4.86;;;;;;;;;;337311;157;857551;-64
2021/07/06 05:30:57;;;;;;;8.44;4.81;;;;;;;;;;335820;156;859909;-65
2021/07/06 05:31:58;;;;;;;12.81;4.68;;;;;;;;;;336878;157;865653;-64
2021/07/06 05:33:00;;;;;;;9.47;4.36;;;;;;;;;;340161;157;857383;-64
2021/07/06 05:34:01;;;;;;;6.18;4.41;;;;;;;;;;342651;156;857384;-64
2021/07/06 05:35:04;;;;;;;6.46;4.83;;;;;;;;;;341533;157;858772;-63
2021/07/06 05:36:06;;;;;;;4.61;4.16;;;;;;;;;;337261;156;865897;-63
2021/07/06 05:37:08;;;;;;;5.41;4.51;;;;;;;;;;338704;157;857428;-63
2021/07/06 05:38:09;;;;;;;9.13;5.30;;;;;;;;;;336656;158;857843;-65
2021/07/06 05:39:11;;;;;;;7.79;4.73;;;;;;;;;;342981;156;860610;-63
2021/07/06 05:40:13;;;;;;;7.21;4.75;;;;;;;;;;341279;156;864857;-63
2021/07/06 05:41:15;;;;;;;6.30;5.01;;;;;;;;;;340941;155;857237;-65
2021/07/06 05:42:17;;;;;;;5.81;4.79;;;;;;;;;;339142;156;857334;-65
2021/07/06 05:43:19;;;;;;;9.30;4.99;;;;;;;;;;339789;155;864749;-65
2021/07/06 05:44:20;;;;;;;9.24;4.75;;;;;;;;;;339268;156;866776;-63
2021/07/06 05:45:22;;;;;;;6.44;4.41;;;;;;;;;;340729;155;866620;-64
2021/07/06 05:46:27;;;;;;;6.04;4.42;;;;;;;;;;336899;157;857897;-64
2021/07/06 05:47:28;;;;;;;8.12;4.66;;;;;;;;;;337682;156;857408;-63
2021/07/06 05:48:30;;;;;;;8.14;4.77;;;;;;;;;;338586;156;858993;-65
2021/07/06 05:49:32;;;;;;;8.61;4.63;;;;;;;;;;342554;157;857306;-66
2021/07/06 05:50:35;;;;;;;8.61;5.31;;;;;;;;;;340668;157;860089;-64
2021/07/06 05:51:37;;;;;;;6.07;5.02;;;;;;;;;;341210;156;857364;-63
2021/07/06 05:52:39;;;;;;;6.65;4.66;;;;;;;;;;340704;156;859118;-65
2021/07/06 05:53:41;;;;;;;5.26;4.65;;;;;;;;;;338671;157;859153;-63
2021/07/06 05:54:43;;;;;;;8.06;4.55;;;;;;;;;;341567;157;857425;-64
2021/07/06 05:55:44;;;;;;;8.11;4.87;;;;;;;;;;340217;156;864852;-64
2021/07/06 05:56:48;;;;;;;6.00;4.83;;;;;;;;;;340059;156;867143;-64
2021/07/06 05:57:49;;;;;;;5.97;4.45;;;;;;;;;;338776;156;857788;-64